sensor_id;sensor_type;location;lat;lon;timestamp;temperature;humidity
6986;DHT22;3533;51.246;6.850;2024-03-06T00:01:52;19.50;44.20
6986;DHT22;3533;51.246;6.850;2024-03-06T00:04:18;19.50;44.20
6986;DHT22;3533;51.246;6.850;2024-03-06T00:06:44;19.50;44.20
6986;DHT22;3533;51.246;6.850;2024-03-06T00:09:09;19.50;44.20
6986;DHT22;3533;51.246;6.850;2024-03-06T00:11:35;19.50;44.20
6986;DHT22;3533;51.246;6.850;2024-03-06T00:14:03;19.50;44.20
6986;DHT22;3533;51.246;6.850;2024-03-06T00:16:34;19.50;44.20
6986;DHT22;3533;51.246;6.850;2024-03-06T00:18:59;19.50;44.20
6986;DHT22;3533;51.246;6.850;2024-03-06T00:21:25;19.50;44.20
6986;DHT22;3533;51.246;6.850;2024-03-06T00:23:50;19.50;44.20
6986;DHT22;3533;51.246;6.850;2024-03-06T00:26:16;19.50;44.20
6986;DHT22;3533;51.246;6.850;2024-03-06T00:28:42;19.50;44.20
6986;DHT22;3533;51.246;6.850;2024-03-06T00:31:07;19.50;44.20
6986;DHT22;3533;51.246;6.850;2024-03-06T00:33:33;19.50;44.20
6986;DHT22;3533;51.246;6.850;2024-03-06T00:35:58;19.50;44.20
6986;DHT22;3533;51.246;6.850;2024-03-06T00:38:24;19.50;44.20
6986;DHT22;3533;51.246;6.850;2024-03-06T00:40:50;19.50;44.20
6986;DHT22;3533;51.246;6.850;2024-03-06T00:43:15;19.50;44.20
6986;DHT22;3533;51.246;6.850;2024-03-06T00:45:41;19.50;44.20
6986;DHT22;3533;51.246;6.850;2024-03-06T00:48:07;19.50;44.20
6986;DHT22;3533;51.246;6.850;2024-03-06T00:50:33;19.50;44.20
6986;DHT22;3533;51.246;6.850;2024-03-06T00:52:59;19.50;44.30
6986;DHT22;3533;51.246;6.850;2024-03-06T00:55:24;19.50;44.20
6986;DHT22;3533;51.246;6.850;2024-03-06T00:57:50;19.50;44.20
6986;DHT22;3533;51.246;6.850;2024-03-06T01:00:16;19.50;44.20
6986;DHT22;3533;51.246;6.850;2024-03-06T01:02:42;19.50;44.20
6986;DHT22;3533;51.246;6.850;2024-03-06T01:05:07;19.50;44.20
6986;DHT22;3533;51.246;6.850;2024-03-06T01:07:35;19.50;44.20
6986;DHT22;3533;51.246;6.850;2024-03-06T01:10:03;19.50;44.20
6986;DHT22;3533;51.246;6.850;2024-03-06T01:12:29;19.40;44.20
6986;DHT22;3533;51.246;6.850;2024-03-06T01:14:55;19.50;44.20
6986;DHT22;3533;51.246;6.850;2024-03-06T01:17:21;19.40;44.20
6986;DHT22;3533;51.246;6.850;2024-03-06T01:19:46;19.40;44.20
6986;DHT22;3533;51.246;6.850;2024-03-06T01:22:12;19.40;45.00
6986;DHT22;3533;51.246;6.850;2024-03-06T01:24:39;19.40;44.20
6986;DHT22;3533;51.246;6.850;2024-03-06T01:27:05;19.40;44.20
6986;DHT22;3533;51.246;6.850;2024-03-06T01:29:31;19.40;44.20
6986;DHT22;3533;51.246;6.850;2024-03-06T01:31:56;19.40;44.20
6986;DHT22;3533;51.246;6.850;2024-03-06T01:34:22;19.40;44.20
6986;DHT22;3533;51.246;6.850;2024-03-06T01:36:48;19.40;44.10
6986;DHT22;3533;51.246;6.850;2024-03-06T01:39:14;19.40;44.20
6986;DHT22;3533;51.246;6.850;2024-03-06T01:41:50;19.40;44.20
6986;DHT22;3533;51.246;6.850;2024-03-06T01:44:17;19.40;44.20
6986;DHT22;3533;51.246;6.850;2024-03-06T01:46:43;19.40;44.20
6986;DHT22;3533;51.246;6.850;2024-03-06T01:49:14;19.40;44.20
6986;DHT22;3533;51.246;6.850;2024-03-06T01:51:41;19.40;44.10
6986;DHT22;3533;51.246;6.850;2024-03-06T01:54:08;19.40;44.20
6986;DHT22;3533;51.246;6.850;2024-03-06T01:56:35;19.40;44.20
6986;DHT22;3533;51.246;6.850;2024-03-06T01:59:03;19.40;44.20
6986;DHT22;3533;51.246;6.850;2024-03-06T02:01:29;19.40;44.20
6986;DHT22;3533;51.246;6.850;2024-03-06T02:03:56;19.40;44.20
6986;DHT22;3533;51.246;6.850;2024-03-06T02:06:22;19.40;44.20
6986;DHT22;3533;51.246;6.850;2024-03-06T02:08:48;19.40;44.20
6986;DHT22;3533;51.246;6.850;2024-03-06T02:11:14;19.40;44.20
6986;DHT22;3533;51.246;6.850;2024-03-06T02:13:41;19.40;44.20
6986;DHT22;3533;51.246;6.850;2024-03-06T02:16:07;19.40;44.20
6986;DHT22;3533;51.246;6.850;2024-03-06T02:18:33;19.40;44.20
6986;DHT22;3533;51.246;6.850;2024-03-06T02:20:58;19.40;44.20
6986;DHT22;3533;51.246;6.850;2024-03-06T02:23:24;19.40;44.20
6986;DHT22;3533;51.246;6.850;2024-03-06T02:25:50;19.40;44.20
6986;DHT22;3533;51.246;6.850;2024-03-06T02:28:16;19.40;44.20
6986;DHT22;3533;51.246;6.850;2024-03-06T02:30:42;19.40;44.20
6986;DHT22;3533;51.246;6.850;2024-03-06T02:33:08;19.40;44.20
6986;DHT22;3533;51.246;6.850;2024-03-06T02:35:35;19.40;44.20
6986;DHT22;3533;51.246;6.850;2024-03-06T02:38:02;19.40;44.20
6986;DHT22;3533;51.246;6.850;2024-03-06T02:40:30;19.40;44.20
6986;DHT22;3533;51.246;6.850;2024-03-06T02:42:56;19.40;44.20
6986;DHT22;3533;51.246;6.850;2024-03-06T02:45:22;19.40;44.20
6986;DHT22;3533;51.246;6.850;2024-03-06T02:47:47;19.40;44.20
6986;DHT22;3533;51.246;6.850;2024-03-06T02:50:13;19.40;44.20
6986;DHT22;3533;51.246;6.850;2024-03-06T02:52:39;19.40;44.90
6986;DHT22;3533;51.246;6.850;2024-03-06T02:55:05;19.40;44.20
6986;DHT22;3533;51.246;6.850;2024-03-06T02:57:31;19.40;44.20
6986;DHT22;3533;51.246;6.850;2024-03-06T02:59:57;19.40;44.20
6986;DHT22;3533;51.246;6.850;2024-03-06T03:02:23;19.40;44.20
6986;DHT22;3533;51.246;6.850;2024-03-06T03:04:49;19.40;44.10
6986;DHT22;3533;51.246;6.850;2024-03-06T03:07:15;19.40;44.10
6986;DHT22;3533;51.246;6.850;2024-03-06T03:09:41;19.40;44.20
6986;DHT22;3533;51.246;6.850;2024-03-06T03:12:06;19.40;44.20
6986;DHT22;3533;51.246;6.850;2024-03-06T03:14:32;19.40;44.20
6986;DHT22;3533;51.246;6.850;2024-03-06T03:17:00;19.40;44.10
6986;DHT22;3533;51.246;6.850;2024-03-06T03:19:25;19.40;44.20
6986;DHT22;3533;51.246;6.850;2024-03-06T03:21:51;19.40;44.20
6986;DHT22;3533;51.246;6.850;2024-03-06T03:24:17;19.40;44.20
6986;DHT22;3533;51.246;6.850;2024-03-06T03:26:45;19.40;44.20
6986;DHT22;3533;51.246;6.850;2024-03-06T03:29:11;19.40;44.20
6986;DHT22;3533;51.246;6.850;2024-03-06T03:31:36;19.40;44.20
6986;DHT22;3533;51.246;6.850;2024-03-06T03:34:04;19.40;44.20
6986;DHT22;3533;51.246;6.850;2024-03-06T03:36:30;19.40;44.20
6986;DHT22;3533;51.246;6.850;2024-03-06T03:38:56;19.40;44.20
6986;DHT22;3533;51.246;6.850;2024-03-06T03:41:21;19.40;44.20
6986;DHT22;3533;51.246;6.850;2024-03-06T03:43:47;19.30;44.80
6986;DHT22;3533;51.246;6.850;2024-03-06T03:46:12;19.40;44.20
6986;DHT22;3533;51.246;6.850;2024-03-06T03:48:39;19.40;44.20
6986;DHT22;3533;51.246;6.850;2024-03-06T03:51:05;19.40;44.20
6986;DHT22;3533;51.246;6.850;2024-03-06T03:53:32;19.40;44.20
6986;DHT22;3533;51.246;6.850;2024-03-06T03:55:59;19.30;44.10
6986;DHT22;3533;51.246;6.850;2024-03-06T03:58:24;19.30;44.10
6986;DHT22;3533;51.246;6.850;2024-03-06T04:00:50;19.40;44.20
6986;DHT22;3533;51.246;6.850;2024-03-06T04:03:19;19.30;44.10
6986;DHT22;3533;51.246;6.850;2024-03-06T04:05:48;19.30;44.10
6986;DHT22;3533;51.246;6.850;2024-03-06T04:08:14;19.40;44.20
6986;DHT22;3533;51.246;6.850;2024-03-06T04:10:39;19.30;44.10
6986;DHT22;3533;51.246;6.850;2024-03-06T04:13:05;19.40;44.20
6986;DHT22;3533;51.246;6.850;2024-03-06T04:15:31;19.40;44.20
6986;DHT22;3533;51.246;6.850;2024-03-06T04:17:57;19.40;44.10
6986;DHT22;3533;51.246;6.850;2024-03-06T04:20:23;19.30;44.10
6986;DHT22;3533;51.246;6.850;2024-03-06T04:22:48;19.30;44.10
6986;DHT22;3533;51.246;6.850;2024-03-06T04:25:16;19.40;44.20
6986;DHT22;3533;51.246;6.850;2024-03-06T04:27:42;19.40;44.20
6986;DHT22;3533;51.246;6.850;2024-03-06T04:30:08;19.40;44.20
6986;DHT22;3533;51.246;6.850;2024-03-06T04:32:34;19.40;44.20
6986;DHT22;3533;51.246;6.850;2024-03-06T04:35:00;19.40;44.20
6986;DHT22;3533;51.246;6.850;2024-03-06T04:37:25;19.40;44.20
6986;DHT22;3533;51.246;6.850;2024-03-06T04:39:52;19.40;44.20
6986;DHT22;3533;51.246;6.850;2024-03-06T04:42:17;19.40;44.20
6986;DHT22;3533;51.246;6.850;2024-03-06T04:44:45;19.40;44.20
6986;DHT22;3533;51.246;6.850;2024-03-06T04:47:11;19.40;44.20
6986;DHT22;3533;51.246;6.850;2024-03-06T04:49:36;19.40;44.20
6986;DHT22;3533;51.246;6.850;2024-03-06T04:52:02;19.40;44.20
6986;DHT22;3533;51.246;6.850;2024-03-06T04:54:28;19.40;44.20
6986;DHT22;3533;51.246;6.850;2024-03-06T04:56:54;19.40;44.20
6986;DHT22;3533;51.246;6.850;2024-03-06T04:59:20;19.40;44.20
6986;DHT22;3533;51.246;6.850;2024-03-06T05:01:45;19.40;44.20
6986;DHT22;3533;51.246;6.850;2024-03-06T05:04:11;19.40;45.00
6986;DHT22;3533;51.246;6.850;2024-03-06T05:06:37;19.40;44.20
6986;DHT22;3533;51.246;6.850;2024-03-06T05:09:03;19.40;44.20
6986;DHT22;3533;51.246;6.850;2024-03-06T05:11:30;19.40;44.20
6986;DHT22;3533;51.246;6.850;2024-03-06T05:14:01;19.50;44.20
6986;DHT22;3533;51.246;6.850;2024-03-06T05:16:26;19.50;44.20
6986;DHT22;3533;51.246;6.850;2024-03-06T05:18:52;19.50;44.20
6986;DHT22;3533;51.246;6.850;2024-03-06T05:21:19;19.50;44.20
6986;DHT22;3533;51.246;6.850;2024-03-06T05:23:45;19.50;44.20
6986;DHT22;3533;51.246;6.850;2024-03-06T05:26:10;19.50;44.20
6986;DHT22;3533;51.246;6.850;2024-03-06T05:28:36;19.50;44.20
6986;DHT22;3533;51.246;6.850;2024-03-06T05:31:18;19.50;44.20
6986;DHT22;3533;51.246;6.850;2024-03-06T05:33:46;19.60;44.30
6986;DHT22;3533;51.246;6.850;2024-03-06T05:36:12;19.50;44.20
6986;DHT22;3533;51.246;6.850;2024-03-06T05:38:41;19.50;44.20
6986;DHT22;3533;51.246;6.850;2024-03-06T05:41:07;19.60;44.30
6986;DHT22;3533;51.246;6.850;2024-03-06T05:43:34;19.50;44.20
6986;DHT22;3533;51.246;6.850;2024-03-06T05:45:59;19.60;44.20
6986;DHT22;3533;51.246;6.850;2024-03-06T05:48:26;19.60;44.20
6986;DHT22;3533;51.246;6.850;2024-03-06T05:50:53;19.50;44.20
6986;DHT22;3533;51.246;6.850;2024-03-06T05:53:18;19.50;44.20
6986;DHT22;3533;51.246;6.850;2024-03-06T05:55:45;19.50;44.10
6986;DHT22;3533;51.246;6.850;2024-03-06T05:58:11;19.50;44.20
6986;DHT22;3533;51.246;6.850;2024-03-06T06:00:37;19.60;44.10
6986;DHT22;3533;51.246;6.850;2024-03-06T06:03:03;19.60;44.10
6986;DHT22;3533;51.246;6.850;2024-03-06T06:05:29;19.50;44.10
6986;DHT22;3533;51.246;6.850;2024-03-06T06:07:54;19.50;44.10
6986;DHT22;3533;51.246;6.850;2024-03-06T06:10:20;19.60;44.10
6986;DHT22;3533;51.246;6.850;2024-03-06T06:12:45;19.60;44.20
6986;DHT22;3533;51.246;6.850;2024-03-06T06:15:11;19.60;44.20
6986;DHT22;3533;51.246;6.850;2024-03-06T06:17:37;19.60;44.10
6986;DHT22;3533;51.246;6.850;2024-03-06T06:20:07;19.60;44.10
6986;DHT22;3533;51.246;6.850;2024-03-06T06:22:40;19.60;44.10
6986;DHT22;3533;51.246;6.850;2024-03-06T06:25:06;19.60;44.10
6986;DHT22;3533;51.246;6.850;2024-03-06T06:27:33;19.50;44.00
6986;DHT22;3533;51.246;6.850;2024-03-06T06:29:58;19.60;44.10
6986;DHT22;3533;51.246;6.850;2024-03-06T06:32:24;19.60;44.00
6986;DHT22;3533;51.246;6.850;2024-03-06T06:34:50;19.60;44.00
6986;DHT22;3533;51.246;6.850;2024-03-06T06:37:16;19.60;44.00
6986;DHT22;3533;51.246;6.850;2024-03-06T06:39:41;19.60;44.00
6986;DHT22;3533;51.246;6.850;2024-03-06T06:42:07;19.60;44.00
6986;DHT22;3533;51.246;6.850;2024-03-06T06:44:34;19.60;44.00
6986;DHT22;3533;51.246;6.850;2024-03-06T06:46:59;19.60;44.10
6986;DHT22;3533;51.246;6.850;2024-03-06T06:49:25;19.60;44.10
6986;DHT22;3533;51.246;6.850;2024-03-06T06:51:50;19.60;44.00
6986;DHT22;3533;51.246;6.850;2024-03-06T06:54:16;19.60;44.10
6986;DHT22;3533;51.246;6.850;2024-03-06T06:56:42;19.60;44.00
6986;DHT22;3533;51.246;6.850;2024-03-06T06:59:08;19.60;43.90
6986;DHT22;3533;51.246;6.850;2024-03-06T07:01:33;19.60;44.00
6986;DHT22;3533;51.246;6.850;2024-03-06T07:03:59;19.60;43.90
6986;DHT22;3533;51.246;6.850;2024-03-06T07:06:25;19.60;43.90
6986;DHT22;3533;51.246;6.850;2024-03-06T07:08:50;19.60;44.00
6986;DHT22;3533;51.246;6.850;2024-03-06T07:11:17;19.60;43.90
6986;DHT22;3533;51.246;6.850;2024-03-06T07:13:46;19.60;43.90
6986;DHT22;3533;51.246;6.850;2024-03-06T07:16:12;19.60;44.00
6986;DHT22;3533;51.246;6.850;2024-03-06T07:18:38;19.60;44.00
6986;DHT22;3533;51.246;6.850;2024-03-06T07:21:03;19.60;44.10
6986;DHT22;3533;51.246;6.850;2024-03-06T07:23:29;19.60;44.00
6986;DHT22;3533;51.246;6.850;2024-03-06T07:25:54;19.60;43.90
6986;DHT22;3533;51.246;6.850;2024-03-06T07:28:22;19.60;44.00
6986;DHT22;3533;51.246;6.850;2024-03-06T07:30:48;19.60;43.90
6986;DHT22;3533;51.246;6.850;2024-03-06T07:33:14;19.60;43.90
6986;DHT22;3533;51.246;6.850;2024-03-06T07:35:39;19.60;43.90
6986;DHT22;3533;51.246;6.850;2024-03-06T07:38:05;19.60;43.90
6986;DHT22;3533;51.246;6.850;2024-03-06T07:40:31;19.60;43.90
6986;DHT22;3533;51.246;6.850;2024-03-06T07:42:57;19.60;44.00
6986;DHT22;3533;51.246;6.850;2024-03-06T07:45:25;19.60;43.90
6986;DHT22;3533;51.246;6.850;2024-03-06T07:47:50;19.60;44.00
6986;DHT22;3533;51.246;6.850;2024-03-06T07:50:16;19.60;43.90
6986;DHT22;3533;51.246;6.850;2024-03-06T07:52:46;19.60;44.00
6986;DHT22;3533;51.246;6.850;2024-03-06T07:55:11;19.60;43.90
6986;DHT22;3533;51.246;6.850;2024-03-06T07:57:37;19.60;43.90
6986;DHT22;3533;51.246;6.850;2024-03-06T08:00:04;19.60;44.00
6986;DHT22;3533;51.246;6.850;2024-03-06T08:02:42;19.60;44.00
6986;DHT22;3533;51.246;6.850;2024-03-06T08:05:15;19.60;44.80
6986;DHT22;3533;51.246;6.850;2024-03-06T08:07:41;19.60;44.00
6986;DHT22;3533;51.246;6.850;2024-03-06T08:10:11;19.60;44.00
6986;DHT22;3533;51.246;6.850;2024-03-06T08:12:42;19.60;44.00
6986;DHT22;3533;51.246;6.850;2024-03-06T08:15:10;19.60;44.00
6986;DHT22;3533;51.246;6.850;2024-03-06T08:17:38;19.60;44.00
6986;DHT22;3533;51.246;6.850;2024-03-06T08:20:04;19.60;44.00
6986;DHT22;3533;51.246;6.850;2024-03-06T08:22:37;19.60;44.00
6986;DHT22;3533;51.246;6.850;2024-03-06T08:25:13;19.60;44.00
6986;DHT22;3533;51.246;6.850;2024-03-06T08:27:41;19.60;43.90
6986;DHT22;3533;51.246;6.850;2024-03-06T08:30:08;19.60;44.00
6986;DHT22;3533;51.246;6.850;2024-03-06T08:32:34;19.60;44.00
6986;DHT22;3533;51.246;6.850;2024-03-06T08:35:02;19.60;44.00
6986;DHT22;3533;51.246;6.850;2024-03-06T08:37:28;19.60;44.00
6986;DHT22;3533;51.246;6.850;2024-03-06T08:39:54;19.60;43.90
6986;DHT22;3533;51.246;6.850;2024-03-06T08:42:19;19.60;44.00
6986;DHT22;3533;51.246;6.850;2024-03-06T08:44:45;19.60;43.90
6986;DHT22;3533;51.246;6.850;2024-03-06T08:47:12;19.60;44.00
6986;DHT22;3533;51.246;6.850;2024-03-06T08:49:37;19.60;43.90
6986;DHT22;3533;51.246;6.850;2024-03-06T08:52:03;19.60;44.00
6986;DHT22;3533;51.246;6.850;2024-03-06T08:54:29;19.60;44.00
6986;DHT22;3533;51.246;6.850;2024-03-06T08:56:56;19.60;43.90
6986;DHT22;3533;51.246;6.850;2024-03-06T08:59:24;19.60;44.00
6986;DHT22;3533;51.246;6.850;2024-03-06T09:01:53;19.60;43.90
6986;DHT22;3533;51.246;6.850;2024-03-06T09:04:20;19.60;43.90
6986;DHT22;3533;51.246;6.850;2024-03-06T09:06:45;19.60;43.90
6986;DHT22;3533;51.246;6.850;2024-03-06T09:09:11;19.60;44.00
6986;DHT22;3533;51.246;6.850;2024-03-06T09:11:40;19.60;44.00
6986;DHT22;3533;51.246;6.850;2024-03-06T09:14:07;19.60;44.10
6986;DHT22;3533;51.246;6.850;2024-03-06T09:16:34;19.60;44.00
6986;DHT22;3533;51.246;6.850;2024-03-06T09:19:00;19.60;44.00
6986;DHT22;3533;51.246;6.850;2024-03-06T09:21:26;19.60;44.00
6986;DHT22;3533;51.246;6.850;2024-03-06T09:23:51;19.60;44.00
6986;DHT22;3533;51.246;6.850;2024-03-06T09:26:17;19.60;43.90
6986;DHT22;3533;51.246;6.850;2024-03-06T09:28:43;19.60;43.90
6986;DHT22;3533;51.246;6.850;2024-03-06T09:31:08;19.60;43.90
6986;DHT22;3533;51.246;6.850;2024-03-06T09:33:34;19.60;44.00
6986;DHT22;3533;51.246;6.850;2024-03-06T09:35:59;19.60;44.00
6986;DHT22;3533;51.246;6.850;2024-03-06T09:38:26;19.60;44.30
6986;DHT22;3533;51.246;6.850;2024-03-06T09:40:51;19.60;44.00
6986;DHT22;3533;51.246;6.850;2024-03-06T09:43:20;19.60;44.00
6986;DHT22;3533;51.246;6.850;2024-03-06T09:45:48;19.60;43.90
6986;DHT22;3533;51.246;6.850;2024-03-06T09:48:18;19.60;44.70
6986;DHT22;3533;51.246;6.850;2024-03-06T09:50:46;19.60;44.00
6986;DHT22;3533;51.246;6.850;2024-03-06T09:53:16;19.60;44.70
6986;DHT22;3533;51.246;6.850;2024-03-06T09:55:42;19.60;44.00
6986;DHT22;3533;51.246;6.850;2024-03-06T09:58:08;19.60;44.00
6986;DHT22;3533;51.246;6.850;2024-03-06T10:00:35;19.60;44.00
6986;DHT22;3533;51.246;6.850;2024-03-06T10:03:02;19.60;44.00
6986;DHT22;3533;51.246;6.850;2024-03-06T10:05:31;19.60;43.90
6986;DHT22;3533;51.246;6.850;2024-03-06T10:07:58;19.60;43.90
6986;DHT22;3533;51.246;6.850;2024-03-06T10:10:25;19.60;43.90
6986;DHT22;3533;51.246;6.850;2024-03-06T10:12:50;19.60;43.90
6986;DHT22;3533;51.246;6.850;2024-03-06T10:15:16;19.60;43.90
6986;DHT22;3533;51.246;6.850;2024-03-06T10:17:42;19.60;43.90
6986;DHT22;3533;51.246;6.850;2024-03-06T10:20:23;19.60;43.90
6986;DHT22;3533;51.246;6.850;2024-03-06T10:22:53;19.60;43.90
6986;DHT22;3533;51.246;6.850;2024-03-06T10:25:22;19.60;43.90
6986;DHT22;3533;51.246;6.850;2024-03-06T10:28:13;19.60;43.90
6986;DHT22;3533;51.246;6.850;2024-03-06T10:30:40;19.60;43.80
6986;DHT22;3533;51.246;6.850;2024-03-06T10:33:12;19.60;43.90
6986;DHT22;3533;51.246;6.850;2024-03-06T10:35:43;19.60;43.90
6986;DHT22;3533;51.246;6.850;2024-03-06T10:38:10;19.60;43.90
6986;DHT22;3533;51.246;6.850;2024-03-06T10:40:41;19.60;43.80
6986;DHT22;3533;51.246;6.850;2024-03-06T10:43:08;19.60;43.90
6986;DHT22;3533;51.246;6.850;2024-03-06T10:45:48;19.60;43.90
6986;DHT22;3533;51.246;6.850;2024-03-06T10:48:15;19.70;43.90
6986;DHT22;3533;51.246;6.850;2024-03-06T10:50:43;19.60;43.80
6986;DHT22;3533;51.246;6.850;2024-03-06T10:53:10;19.60;43.80
6986;DHT22;3533;51.246;6.850;2024-03-06T10:55:37;19.60;43.80
6986;DHT22;3533;51.246;6.850;2024-03-06T10:58:07;19.60;43.80
6986;DHT22;3533;51.246;6.850;2024-03-06T11:00:38;19.60;43.80
6986;DHT22;3533;51.246;6.850;2024-03-06T11:03:08;19.60;43.80
6986;DHT22;3533;51.246;6.850;2024-03-06T11:05:35;19.60;43.80
6986;DHT22;3533;51.246;6.850;2024-03-06T11:08:03;19.60;43.80
6986;DHT22;3533;51.246;6.850;2024-03-06T11:10:32;19.60;43.80
6986;DHT22;3533;51.246;6.850;2024-03-06T11:12:58;19.60;43.80
6986;DHT22;3533;51.246;6.850;2024-03-06T11:15:24;19.70;43.90
6986;DHT22;3533;51.246;6.850;2024-03-06T11:17:50;19.60;43.80
6986;DHT22;3533;51.246;6.850;2024-03-06T11:20:17;19.60;43.80
6986;DHT22;3533;51.246;6.850;2024-03-06T11:28:16;19.60;43.70
6986;DHT22;3533;51.246;6.850;2024-03-06T11:31:13;19.60;43.80
6986;DHT22;3533;51.246;6.850;2024-03-06T11:33:52;19.70;43.90
6986;DHT22;3533;51.246;6.850;2024-03-06T11:36:25;19.70;43.80
6986;DHT22;3533;51.246;6.850;2024-03-06T11:38:57;19.70;43.80
6986;DHT22;3533;51.246;6.850;2024-03-06T11:44:13;19.70;43.80
6986;DHT22;3533;51.246;6.850;2024-03-06T11:46:57;19.70;43.80
6986;DHT22;3533;51.246;6.850;2024-03-06T11:49:25;19.70;43.80
6986;DHT22;3533;51.246;6.850;2024-03-06T11:51:55;19.70;43.80
6986;DHT22;3533;51.246;6.850;2024-03-06T11:54:22;19.70;43.80
6986;DHT22;3533;51.246;6.850;2024-03-06T11:56:56;19.70;43.80
6986;DHT22;3533;51.246;6.850;2024-03-06T11:59:30;19.70;43.80
6986;DHT22;3533;51.246;6.850;2024-03-06T12:02:00;19.70;43.80
6986;DHT22;3533;51.246;6.850;2024-03-06T12:04:33;19.70;43.80
6986;DHT22;3533;51.246;6.850;2024-03-06T12:07:00;19.70;43.80
6986;DHT22;3533;51.246;6.850;2024-03-06T12:09:30;19.70;43.80
6986;DHT22;3533;51.246;6.850;2024-03-06T12:11:56;19.70;43.80
6986;DHT22;3533;51.246;6.850;2024-03-06T12:14:25;19.70;43.80
6986;DHT22;3533;51.246;6.850;2024-03-06T12:16:59;19.70;43.80
6986;DHT22;3533;51.246;6.850;2024-03-06T12:19:31;19.70;43.80
6986;DHT22;3533;51.246;6.850;2024-03-06T12:22:00;19.70;43.80
6986;DHT22;3533;51.246;6.850;2024-03-06T12:24:26;19.70;43.80
6986;DHT22;3533;51.246;6.850;2024-03-06T12:27:03;19.70;43.80
6986;DHT22;3533;51.246;6.850;2024-03-06T12:29:32;19.70;43.80
6986;DHT22;3533;51.246;6.850;2024-03-06T12:32:02;19.70;43.80
6986;DHT22;3533;51.246;6.850;2024-03-06T12:34:28;19.70;43.90
6986;DHT22;3533;51.246;6.850;2024-03-06T12:36:55;19.70;43.80
6986;DHT22;3533;51.246;6.850;2024-03-06T12:39:23;19.70;43.80
6986;DHT22;3533;51.246;6.850;2024-03-06T12:41:52;19.70;43.80
6986;DHT22;3533;51.246;6.850;2024-03-06T12:44:21;19.70;43.80
6986;DHT22;3533;51.246;6.850;2024-03-06T12:46:47;19.70;43.70
6986;DHT22;3533;51.246;6.850;2024-03-06T12:49:14;19.70;43.70
6986;DHT22;3533;51.246;6.850;2024-03-06T12:51:40;19.70;43.80
6986;DHT22;3533;51.246;6.850;2024-03-06T12:54:05;19.60;43.70
6986;DHT22;3533;51.246;6.850;2024-03-06T12:56:31;19.70;43.80
6986;DHT22;3533;51.246;6.850;2024-03-06T12:58:56;19.70;43.80
6986;DHT22;3533;51.246;6.850;2024-03-06T13:01:22;19.70;43.80
6986;DHT22;3533;51.246;6.850;2024-03-06T13:03:48;19.70;43.80
6986;DHT22;3533;51.246;6.850;2024-03-06T13:06:14;19.70;43.80
6986;DHT22;3533;51.246;6.850;2024-03-06T13:08:40;19.70;43.80
6986;DHT22;3533;51.246;6.850;2024-03-06T13:11:06;19.70;43.80
6986;DHT22;3533;51.246;6.850;2024-03-06T13:13:32;19.70;43.80
6986;DHT22;3533;51.246;6.850;2024-03-06T13:15:59;19.70;43.80
6986;DHT22;3533;51.246;6.850;2024-03-06T13:18:25;19.70;43.80
6986;DHT22;3533;51.246;6.850;2024-03-06T13:20:51;19.70;43.80
6986;DHT22;3533;51.246;6.850;2024-03-06T13:23:17;19.60;43.80
6986;DHT22;3533;51.246;6.850;2024-03-06T13:25:42;19.70;43.80
6986;DHT22;3533;51.246;6.850;2024-03-06T13:28:09;19.70;43.90
6986;DHT22;3533;51.246;6.850;2024-03-06T13:30:34;19.70;43.80
6986;DHT22;3533;51.246;6.850;2024-03-06T13:33:00;19.60;43.80
6986;DHT22;3533;51.246;6.850;2024-03-06T13:35:26;19.70;43.80
6986;DHT22;3533;51.246;6.850;2024-03-06T13:37:51;19.60;43.80
6986;DHT22;3533;51.246;6.850;2024-03-06T13:40:17;19.70;43.80
6986;DHT22;3533;51.246;6.850;2024-03-06T13:42:43;19.70;43.80
6986;DHT22;3533;51.246;6.850;2024-03-06T13:45:10;19.70;43.80
6986;DHT22;3533;51.246;6.850;2024-03-06T13:47:40;19.60;43.80
6986;DHT22;3533;51.246;6.850;2024-03-06T13:50:16;19.70;43.80
6986;DHT22;3533;51.246;6.850;2024-03-06T13:52:42;19.60;43.80
6986;DHT22;3533;51.246;6.850;2024-03-06T13:55:09;19.70;43.90
6986;DHT22;3533;51.246;6.850;2024-03-06T13:57:37;19.60;43.70
6986;DHT22;3533;51.246;6.850;2024-03-06T14:00:07;19.60;43.80
6986;DHT22;3533;51.246;6.850;2024-03-06T14:02:43;19.70;43.90
6986;DHT22;3533;51.246;6.850;2024-03-06T14:05:09;19.60;43.80
6986;DHT22;3533;51.246;6.850;2024-03-06T14:07:34;19.60;43.90
6986;DHT22;3533;51.246;6.850;2024-03-06T14:10:00;19.60;43.80
6986;DHT22;3533;51.246;6.850;2024-03-06T14:12:26;19.70;44.00
6986;DHT22;3533;51.246;6.850;2024-03-06T14:14:51;19.70;43.90
6986;DHT22;3533;51.246;6.850;2024-03-06T14:17:17;19.60;43.80
6986;DHT22;3533;51.246;6.850;2024-03-06T14:19:43;19.60;43.80
6986;DHT22;3533;51.246;6.850;2024-03-06T14:22:10;19.70;44.00
6986;DHT22;3533;51.246;6.850;2024-03-06T14:24:35;19.70;44.00
6986;DHT22;3533;51.246;6.850;2024-03-06T14:27:02;19.60;43.90
6986;DHT22;3533;51.246;6.850;2024-03-06T14:29:28;19.60;43.90
6986;DHT22;3533;51.246;6.850;2024-03-06T14:31:54;19.70;43.90
6986;DHT22;3533;51.246;6.850;2024-03-06T14:34:20;19.60;43.80
6986;DHT22;3533;51.246;6.850;2024-03-06T14:36:51;19.60;43.80
6986;DHT22;3533;51.246;6.850;2024-03-06T14:39:17;19.70;43.90
6986;DHT22;3533;51.246;6.850;2024-03-06T14:41:43;19.70;43.90
6986;DHT22;3533;51.246;6.850;2024-03-06T14:44:10;19.70;43.90
6986;DHT22;3533;51.246;6.850;2024-03-06T14:46:36;19.70;43.90
6986;DHT22;3533;51.246;6.850;2024-03-06T14:49:01;19.70;43.90
6986;DHT22;3533;51.246;6.850;2024-03-06T14:51:28;19.70;43.90
6986;DHT22;3533;51.246;6.850;2024-03-06T14:53:55;19.70;43.90
6986;DHT22;3533;51.246;6.850;2024-03-06T14:56:20;19.70;43.90
6986;DHT22;3533;51.246;6.850;2024-03-06T14:58:47;19.70;44.00
6986;DHT22;3533;51.246;6.850;2024-03-06T15:01:13;19.70;43.90
6986;DHT22;3533;51.246;6.850;2024-03-06T15:03:38;19.70;44.00
6986;DHT22;3533;51.246;6.850;2024-03-06T15:06:06;19.70;43.90
6986;DHT22;3533;51.246;6.850;2024-03-06T15:08:33;19.70;44.00
6986;DHT22;3533;51.246;6.850;2024-03-06T15:11:00;19.70;43.90
6986;DHT22;3533;51.246;6.850;2024-03-06T15:13:25;19.70;44.00
6986;DHT22;3533;51.246;6.850;2024-03-06T15:15:51;19.70;44.00
6986;DHT22;3533;51.246;6.850;2024-03-06T15:18:17;19.70;44.00
6986;DHT22;3533;51.246;6.850;2024-03-06T15:20:43;19.70;43.90
6986;DHT22;3533;51.246;6.850;2024-03-06T15:23:09;19.70;44.00
6986;DHT22;3533;51.246;6.850;2024-03-06T15:25:34;19.70;44.00
6986;DHT22;3533;51.246;6.850;2024-03-06T15:28:00;19.70;44.00
6986;DHT22;3533;51.246;6.850;2024-03-06T15:30:25;19.70;44.00
6986;DHT22;3533;51.246;6.850;2024-03-06T15:32:52;19.70;44.00
6986;DHT22;3533;51.246;6.850;2024-03-06T15:35:18;19.70;43.90
6986;DHT22;3533;51.246;6.850;2024-03-06T15:37:43;19.70;44.00
6986;DHT22;3533;51.246;6.850;2024-03-06T15:40:09;19.70;43.90
6986;DHT22;3533;51.246;6.850;2024-03-06T15:42:36;19.70;44.00
6986;DHT22;3533;51.246;6.850;2024-03-06T15:45:02;19.70;43.90
6986;DHT22;3533;51.246;6.850;2024-03-06T15:47:28;19.70;43.90
6986;DHT22;3533;51.246;6.850;2024-03-06T15:49:53;19.70;44.00
6986;DHT22;3533;51.246;6.850;2024-03-06T15:52:20;19.70;44.00
6986;DHT22;3533;51.246;6.850;2024-03-06T15:54:46;19.70;44.00
6986;DHT22;3533;51.246;6.850;2024-03-06T15:57:11;19.70;43.90
6986;DHT22;3533;51.246;6.850;2024-03-06T15:59:38;19.70;43.80
6986;DHT22;3533;51.246;6.850;2024-03-06T16:02:04;19.70;43.80
6986;DHT22;3533;51.246;6.850;2024-03-06T16:04:30;19.70;43.80
6986;DHT22;3533;51.246;6.850;2024-03-06T16:06:59;19.70;43.80
6986;DHT22;3533;51.246;6.850;2024-03-06T16:09:24;19.70;43.80